Time;durP1;ratioP1;P1;durP2;ratioP2;P2;SDS_P1;SDS_P2;PMS_P1;PMS_P2;Temp;Humidity;BMP_temperature;BMP_pressure;BME280_temperature;BME280_humidity;BME280_pressure;Samples;Min_cycle;Max_cycle;Signal;HPM_P1;HPM_P2
2022/12/02 00:00:42;;;;;;;4.86;4.42;;;;;;;-1.76;49.21;102533.24;458071;114;930517;-80
2022/12/02 00:01:47;;;;;;;4.95;4.57;;;;;;;-1.76;49.19;102527.89;457121;116;922529;-79
2022/12/02 00:02:51;;;;;;;4.65;4.26;;;;;;;-1.78;49.11;102529.81;457144;116;922363;-79
2022/12/02 00:03:56;;;;;;;5.34;4.82;;;;;;;-1.79;49.08;102523.60;457230;116;922512;-80
2022/12/02 00:05:03;;;;;;;4.76;4.34;;;;;;;-1.79;49.18;102518.25;457124;115;923303;-80
2022/12/02 00:06:13;;;;;;;4.62;4.22;;;;;;;-1.79;49.10;102517.39;457835;114;922839;-80
2022/12/02 00:07:23;;;;;;;4.83;4.43;;;;;;;-1.67;49.05;102514.02;477129;110;946892;-79
2022/12/02 00:08:31;;;;;;;5.20;4.65;;;;;;;-1.80;49.04;102511.17;465604;114;922866;-81
2022/12/02 00:09:35;;;;;;;5.32;4.46;;;;;;;-1.80;49.09;102507.64;467594;112;930579;-80
2022/12/02 00:10:38;;;;;;;4.81;4.41;;;;;;;-1.83;49.08;102513.17;470789;112;923489;-79
2022/12/02 00:11:44;;;;;;;4.41;4.04;;;;;;;-1.84;49.12;102506.10;471627;112;922579;-79
2022/12/02 00:12:47;;;;;;;4.66;4.27;;;;;;;-1.84;49.06;102511.45;471452;112;922510;-81
2022/12/02 00:13:51;;;;;;;4.96;4.58;;;;;;;-1.84;49.08;102512.31;471653;112;922559;-81
2022/12/02 00:14:56;;;;;;;4.89;4.49;;;;;;;-1.84;49.12;102506.10;471593;112;922475;-80
2022/12/02 00:16:02;;;;;;;5.01;4.51;;;;;;;-1.84;49.08;102508.77;470373;112;922597;-80
2022/12/02 00:17:05;;;;;;;5.39;4.92;;;;;;;-1.85;49.07;102517.73;471432;112;922529;-79
2022/12/02 00:18:11;;;;;;;5.17;4.78;;;;;;;-1.86;49.06;102507.98;471644;112;922616;-79
2022/12/02 00:19:14;;;;;;;5.09;4.69;;;;;;;-1.86;49.12;102508.85;471279;112;922451;-81
2022/12/02 00:20:17;;;;;;;4.71;4.31;;;;;;;-1.85;49.11;102515.06;470386;112;922500;-79
2022/12/02 00:21:21;;;;;;;5.12;4.66;;;;;;;-1.85;49.11;102510.58;463362;114;922521;-80
2022/12/02 00:22:24;;;;;;;4.92;4.44;;;;;;;-1.84;49.14;102509.64;453955;117;922578;-79
2022/12/02 00:23:27;;;;;;;5.28;4.87;;;;;;;-1.82;49.08;102513.06;463338;114;922406;-80
2022/12/02 00:24:31;;;;;;;4.51;4.21;;;;;;;-1.81;49.06;102509.45;463367;114;923418;-80
2022/12/02 00:25:34;;;;;;;5.70;5.20;;;;;;;-1.80;49.04;102511.17;453983;116;922888;-81
2022/12/02 00:26:38;;;;;;;4.90;4.52;;;;;;;-1.80;49.10;102508.50;471531;112;922555;-79
2022/12/02 00:27:41;;;;;;;4.98;4.54;;;;;;;-1.79;49.04;102518.25;471649;112;922469;-79
2022/12/02 00:28:44;;;;;;;5.09;4.62;;;;;;;-1.78;49.08;102513.77;471658;112;922926;-80
2022/12/02 00:29:47;;;;;;;5.39;4.89;;;;;;;-1.76;49.03;102518.06;471600;112;922519;-79
2022/12/02 00:30:50;;;;;;;5.85;5.28;;;;;;;-1.75;49.04;102519.80;463463;112;922452;-79
2022/12/02 00:31:53;;;;;;;5.21;4.81;;;;;;;-1.73;49.04;102522.39;451151;117;922664;-79
2022/12/02 00:32:56;;;;;;;5.68;5.14;;;;;;;-1.72;49.05;102518.77;451490;115;923094;-79
2022/12/02 00:34:00;;;;;;;5.43;4.93;;;;;;;-1.71;48.96;102520.50;460218;115;924000;-79
2022/12/02 00:35:03;;;;;;;5.29;4.79;;;;;;;-1.70;49.00;102516.84;460113;115;922780;-79
2022/12/02 00:36:07;;;;;;;5.32;4.91;;;;;;;-1.70;48.98;102516.84;463673;112;923093;-80
2022/12/02 00:37:11;;;;;;;5.26;4.82;;;;;;;-1.68;48.91;102512.28;463261;114;922484;-80
2022/12/02 00:38:14;;;;;;;4.83;4.43;;;;;;;-1.67;48.93;102516.69;453951;117;922577;-79
2022/12/02 00:39:17;;;;;;;4.46;4.07;;;;;;;-1.67;48.79;102515.83;463245;114;922857;-80
2022/12/02 00:40:21;;;;;;;5.10;4.58;;;;;;;-1.67;48.79;102505.13;464630;112;928880;-79
2022/12/02 00:41:24;;;;;;;5.37;4.97;;;;;;;-1.68;48.79;102512.28;471645;112;922589;-78
2022/12/02 00:42:27;;;;;;;4.74;4.34;;;;;;;-1.67;48.84;102518.50;471513;112;922388;-79
2022/12/02 00:46:32;;;;;;;4.37;4.00;;;;;;;-1.68;48.70;102512.28;471488;112;922489;-80
2022/12/02 00:47:34;;;;;;;;;;;;;;;-1.68;48.72;102509.61;475365;112;922210;-81
2022/12/02 00:48:38;;;;;;;4.39;4.01;;;;;;;-1.67;48.79;102519.36;471641;112;922678;-80
2022/12/02 00:49:41;;;;;;;4.95;4.54;;;;;;;-1.71;48.76;102515.98;471550;112;922711;-79
2022/12/02 00:50:44;;;;;;;4.94;4.56;;;;;;;-1.72;48.70;102510.75;470674;112;922503;-80
2022/12/02 00:51:48;;;;;;;5.36;4.90;;;;;;;-1.72;48.78;102516.09;471642;112;922570;-81
2022/12/02 00:52:51;;;;;;;4.79;4.35;;;;;;;-1.72;48.76;102514.28;471579;112;922899;-80
2022/12/02 00:53:54;;;;;;;5.00;4.54;;;;;;;-1.71;48.71;102513.31;471668;112;922457;-79
2022/12/02 00:54:57;;;;;;;5.68;5.19;;;;;;;-1.70;48.64;102515.04;471500;112;922483;-80
2022/12/02 00:56:01;;;;;;;4.67;4.27;;;;;;;-1.67;48.75;102505.13;470957;112;922783;-78
2022/12/02 00:57:05;;;;;;;4.57;4.25;;;;;;;-1.67;48.72;102515.83;469327;112;922673;-81
2022/12/02 00:58:08;;;;;;;4.74;4.34;;;;;;;-1.65;48.67;102514.77;463255;114;922478;-79
2022/12/02 00:59:12;;;;;;;4.91;4.51;;;;;;;-1.65;48.58;102512.09;453742;116;922964;-79
2022/12/02 01:00:16;;;;;;;5.04;4.54;;;;;;;-1.64;48.55;102513.82;455017;112;922659;-81
2022/12/02 01:01:19;;;;;;;5.16;4.76;;;;;;;-1.62;48.62;102517.28;471571;112;922546;-81
2022/12/02 01:02:23;;;;;;;4.49;4.19;;;;;;;-1.61;48.59;102510.12;471463;112;930433;-79
2022/12/02 01:03:26;;;;;;;4.45;4.09;;;;;;;-1.60;48.54;102531.44;471639;112;922500;-79
2022/12/02 01:04:29;;;;;;;4.31;3.98;;;;;;;-1.58;48.44;102532.19;471647;112;922522;-78
2022/12/02 01:05:32;;;;;;;5.51;4.92;;;;;;;-1.57;48.43;102517.00;470729;112;922587;-80
2022/12/02 01:06:36;;;;;;;4.48;4.17;;;;;;;-1.57;48.46;102517.00;471635;112;922490;-80
2022/12/02 01:07:39;;;;;;;4.82;4.32;;;;;;;-1.56;48.41;102537.46;471608;112;922896;-81
2022/12/02 01:08:42;;;;;;;4.86;4.47;;;;;;;-1.56;48.35;102522.27;471631;112;922820;-78
2022/12/02 01:09:45;;;;;;;5.09;4.66;;;;;;;-1.55;48.37;102518.66;471489;112;922402;-79
2022/12/02 01:10:50;;;;;;;4.78;4.38;;;;;;;-1.55;48.33;102515.98;465135;112;930385;-81
2022/12/02 01:11:53;;;;;;;5.31;4.87;;;;;;;-1.56;48.37;102516.92;462826;114;922860;-81
2022/12/02 01:12:56;;;;;;;4.83;4.42;;;;;;;-1.54;48.32;102522.16;462954;114;922606;-79
2022/12/02 01:13:59;;;;;;;4.44;4.04;;;;;;;-1.55;48.31;102520.47;462973;114;922497;-79
2022/12/02 01:15:03;;;;;;;6.30;4.53;;;;;;;-1.55;48.27;102521.33;462939;114;922535;-81
2022/12/02 01:16:07;;;;;;;4.68;4.24;;;;;;;-1.55;48.24;102526.68;471443;112;922489;-79
2022/12/02 01:17:10;;;;;;;4.50;4.04;;;;;;;-1.55;48.21;102528.49;471555;112;922395;-80
2022/12/02 01:18:13;;;;;;;4.44;4.07;;;;;;;-1.55;48.20;102526.68;471647;112;922585;-79
2022/12/02 01:19:17;;;;;;;5.09;4.69;;;;;;;-1.55;48.21;102517.80;471432;112;922848;-80
2022/12/02 01:20:20;;;;;;;4.83;4.43;;;;;;;-1.55;48.20;102524.00;470709;112;930493;-81
2022/12/02 01:21:23;;;;;;;4.86;4.46;;;;;;;-1.55;48.16;102517.80;471553;112;922454;-80
2022/12/02 01:22:26;;;;;;;4.37;3.99;;;;;;;-1.56;48.12;102526.77;471576;112;922521;-80
2022/12/02 01:23:29;;;;;;;4.91;4.07;;;;;;;-1.57;48.17;102515.20;471949;112;922418;-80
2022/12/02 01:24:32;;;;;;;4.92;4.52;;;;;;;-1.57;48.07;102523.22;472187;112;922276;-79
2022/12/02 01:25:36;;;;;;;4.87;4.43;;;;;;;-1.57;48.16;102517.87;468049;112;922583;-78
2022/12/02 01:26:40;;;;;;;4.37;3.89;;;;;;;-1.56;48.08;102529.44;454397;117;922181;-80
2022/12/02 01:27:43;;;;;;;4.69;4.33;;;;;;;-1.56;48.07;102514.25;455206;114;922881;-80
2022/12/02 01:28:46;;;;;;;4.62;4.22;;;;;;;-1.57;48.17;102519.69;464024;114;922146;-76
2022/12/02 01:29:49;;;;;;;5.04;4.54;;;;;;;-1.57;48.17;102517.87;454693;117;922356;-80
2022/12/02 01:30:52;;;;;;;3.69;3.39;;;;;;;-1.56;48.08;102519.60;454603;115;922066;-80
2022/12/02 01:31:56;;;;;;;4.79;4.39;;;;;;;-1.56;48.13;102526.77;463970;114;922511;-79
2022/12/02 01:32:59;;;;;;;4.36;4.03;;;;;;;-1.56;48.07;102508.91;454683;117;922101;-80
2022/12/02 01:34:02;;;;;;;4.17;3.84;;;;;;;-1.56;48.15;102513.39;454593;117;922605;-80
2022/12/02 01:35:05;;;;;;;4.26;3.79;;;;;;;-1.56;48.16;102516.92;454507;116;922209;-77
2022/12/02 01:36:09;;;;;;;4.14;3.84;;;;;;;-1.56;48.17;102514.25;464003;114;922594;-78
2022/12/02 01:37:12;;;;;;;4.72;4.37;;;;;;;-1.54;48.15;102511.46;463883;114;922435;-79
2022/12/02 01:38:15;;;;;;;4.32;3.96;;;;;;;-1.54;48.11;102515.00;454915;116;922198;-77
2022/12/02 01:39:18;;;;;;;4.42;3.99;;;;;;;-1.52;48.23;102515.79;454487;114;922591;-80
2022/12/02 01:40:22;;;;;;;4.17;3.74;;;;;;;-1.51;48.17;102505.95;465199;112;922798;-80
2022/12/02 01:41:25;;;;;;;4.61;4.23;;;;;;;-1.50;48.07;102518.37;471471;112;922438;-79
2022/12/02 01:42:28;;;;;;;4.49;4.09;;;;;;;-1.52;48.15;102515.79;471464;112;930527;-81
2022/12/02 01:43:32;;;;;;;3.99;3.69;;;;;;;-1.52;48.14;102499.73;471428;112;922541;-80
2022/12/02 01:44:36;;;;;;;5.11;4.26;;;;;;;-1.52;48.09;102515.79;471441;112;922644;-80
2022/12/02 01:45:40;;;;;;;3.92;3.61;;;;;;;-1.52;48.04;102502.41;457399;115;930482;-79
2022/12/02 01:46:43;;;;;;;4.08;3.69;;;;;;;-1.51;48.10;102516.66;454407;114;930620;-80
2022/12/02 01:47:46;;;;;;;4.15;3.84;;;;;;;-1.50;48.09;102510.36;463285;114;922581;-80
2022/12/02 01:48:50;;;;;;;4.39;4.01;;;;;;;-1.51;48.06;102520.19;463158;114;922683;-80
2022/12/02 01:49:53;;;;;;;3.92;3.62;;;;;;;-1.50;48.13;102497.84;463170;114;922926;-82
2022/12/02 01:50:57;;;;;;;4.64;4.24;;;;;;;-1.49;48.13;102512.09;469613;112;923009;-80
2022/12/02 01:52:00;;;;;;;4.37;3.98;;;;;;;-1.48;48.07;102503.08;471453;112;922550;-81
2022/12/02 01:53:04;;;;;;;4.31;3.94;;;;;;;-1.48;48.06;102511.97;471455;112;922464;-80
2022/12/02 01:54:07;;;;;;;4.32;4.02;;;;;;;-1.46;48.13;102512.76;471416;112;924475;-80
2022/12/02 01:55:14;;;;;;;5.30;4.56;;;;;;;-1.45;48.09;102509.13;470776;112;922898;-79
2022/12/02 01:56:17;;;;;;;4.57;4.12;;;;;;;-1.44;48.01;102513.54;463071;114;922546;-80
2022/12/02 01:57:24;;;;;;;4.42;4.04;;;;;;;-1.43;48.12;102501.86;463266;112;922467;-81
2022/12/02 01:58:30;;;;;;;4.33;3.94;;;;;;;-1.41;48.11;102518.70;463059;114;922564;-80
2022/12/02 01:59:33;;;;;;;4.19;3.85;;;;;;;-1.41;48.02;102499.97;463062;114;922569;-79
2022/12/02 02:00:36;;;;;;;4.36;4.06;;;;;;;-1.39;48.04;102515.94;463594;112;922583;-80
2022/12/02 02:01:39;;;;;;;4.09;3.66;;;;;;;-1.40;47.98;102512.40;463172;114;922458;-80
2022/12/02 02:02:45;;;;;;;4.84;4.39;;;;;;;-1.40;48.04;102514.20;463154;113;923119;-79
2022/12/02 02:03:48;;;;;;;4.50;4.18;;;;;;;-1.37;48.07;102516.69;463072;114;922419;-79
2022/12/02 02:04:54;;;;;;;4.58;4.20;;;;;;;-1.36;48.01;102511.25;463219;114;922485;-80
2022/12/02 02:05:57;;;;;;;5.01;4.61;;;;;;;-1.35;48.08;102509.44;469546;112;922552;-83
2022/12/02 02:07:01;;;;;;;4.12;3.65;;;;;;;-1.34;47.97;102509.36;471432;112;922614;-81
2022/12/02 02:08:07;;;;;;;4.09;3.72;;;;;;;-1.33;48.03;102512.91;471447;112;922443;-79
2022/12/02 02:09:11;;;;;;;4.44;3.90;;;;;;;-1.33;47.99;102521.80;471310;112;922996;-82
2022/12/02 02:10:15;;;;;;;4.58;4.20;;;;;;;-1.31;47.94;102505.63;470518;112;922566;-80
2022/12/02 02:11:19;;;;;;;4.39;4.02;;;;;;;-1.30;48.04;102504.67;463158;114;923061;-78
2022/12/02 02:12:23;;;;;;;4.43;4.05;;;;;;;-1.31;47.95;102498.46;453766;117;922758;-79
2022/12/02 02:13:27;;;;;;;4.26;3.96;;;;;;;-1.31;47.91;102505.63;463045;114;922800;-80
2022/12/02 02:14:31;;;;;;;4.54;4.14;;;;;;;-1.30;48.02;102510.89;463239;114;922541;-79
2022/12/02 02:15:36;;;;;;;4.24;3.94;;;;;;;-1.29;47.94;102506.41;462233;112;922626;-82
2022/12/02 02:16:40;;;;;;;5.31;4.63;;;;;;;-1.31;47.97;102511.84;459915;115;922490;-82
2022/12/02 02:17:44;;;;;;;4.78;4.39;;;;;;;-1.29;48.01;102506.41;459975;115;922942;-81
2022/12/02 02:18:47;;;;;;;4.12;3.81;;;;;;;-1.30;48.00;102505.54;459979;115;922605;-80
2022/12/02 02:19:51;;;;;;;4.14;3.83;;;;;;;-1.30;47.94;102502.86;450968;117;928912;-81
2022/12/02 02:20:58;;;;;;;4.61;4.01;;;;;;;-1.31;47.92;102495.78;459357;115;922517;-80
2022/12/02 02:22:05;;;;;;;5.09;4.69;;;;;;;-1.32;47.97;102495.87;462589;112;922919;-79
2022/12/02 02:23:15;;;;;;;4.13;3.75;;;;;;;-1.32;47.87;102502.08;470653;112;922584;-81
2022/12/02 02:24:18;;;;;;;4.34;3.96;;;;;;;-1.32;47.92;102501.22;470633;112;922442;-80
2022/12/02 02:25:21;;;;;;;4.59;4.19;;;;;;;-1.33;47.98;102495.03;469821;112;923050;-78
2022/12/02 02:26:25;;;;;;;4.63;4.22;;;;;;;-1.33;47.98;102492.36;456484;116;922379;-80
2022/12/02 02:27:28;;;;;;;4.55;4.24;;;;;;;-1.34;47.88;102504.01;456687;114;923069;-79
2022/12/02 02:28:33;;;;;;;4.76;4.36;;;;;;;-1.36;47.89;102486.31;463165;114;922977;-81
2022/12/02 02:29:36;;;;;;;4.19;3.89;;;;;;;-1.36;47.94;102502.36;463050;114;922456;-80
2022/12/02 02:30:40;;;;;;;3.90;3.61;;;;;;;-1.38;47.96;102501.61;455146;116;922695;-79
2022/12/02 02:31:43;;;;;;;4.56;4.15;;;;;;;-1.39;48.00;102495.40;454502;114;922562;-79
2022/12/02 02:32:48;;;;;;;5.53;4.24;;;;;;;-1.40;47.92;102498.16;463130;114;922887;-80
2022/12/02 02:33:51;;;;;;;4.41;3.97;;;;;;;-1.41;47.99;102486.59;463065;114;922650;-79
2022/12/02 02:34:54;;;;;;;5.36;4.89;;;;;;;-1.42;47.87;102500.05;463176;114;930465;-79
2022/12/02 02:35:57;;;;;;;4.51;4.12;;;;;;;-1.43;47.96;102492.97;463928;112;922779;-81
2022/12/02 02:37:01;;;;;;;4.98;4.59;;;;;;;-1.45;47.91;102489.55;453867;117;922867;-78
2022/12/02 02:38:07;;;;;;;4.56;4.16;;;;;;;-1.47;48.01;102497.66;463048;114;930346;-78
2022/12/02 02:39:13;;;;;;;4.42;4.02;;;;;;;-1.49;47.94;102491.52;463025;114;922846;-80
2022/12/02 02:40:17;;;;;;;5.19;4.79;;;;;;;-1.51;47.95;102492.58;453664;117;922555;-79
2022/12/02 02:41:21;;;;;;;4.15;3.88;;;;;;;-1.52;48.04;102489.04;463109;114;922537;-79
2022/12/02 02:42:24;;;;;;;6.02;4.31;;;;;;;-1.54;48.11;102498.95;453853;117;930551;-79
2022/12/02 02:43:29;;;;;;;4.62;4.18;;;;;;;-1.54;48.05;102501.63;453918;117;924602;-80
2022/12/02 02:44:33;;;;;;;4.26;3.88;;;;;;;-1.55;48.08;102491.91;454644;114;922934;-80
2022/12/02 02:45:38;;;;;;;4.03;3.72;;;;;;;-1.55;48.08;102493.72;463707;112;922906;-80
2022/12/02 02:46:42;;;;;;;4.89;4.49;;;;;;;-1.55;48.06;102496.39;462932;114;930929;-80
2022/12/02 02:47:47;;;;;;;4.28;3.98;;;;;;;-1.56;48.09;102491.99;463037;114;922538;-77
2022/12/02 02:48:51;;;;;;;4.38;4.05;;;;;;;-1.57;48.10;102496.47;453772;117;931063;-80
2022/12/02 02:49:54;;;;;;;5.08;4.43;;;;;;;-1.57;48.24;102499.15;463112;114;922542;-80
2022/12/02 02:50:57;;;;;;;4.20;3.71;;;;;;;-1.55;48.25;102496.39;453829;117;922626;-79
2022/12/02 02:52:00;;;;;;;5.59;4.42;;;;;;;-1.55;48.24;102501.74;471438;112;922442;-78
2022/12/02 02:53:04;;;;;;;4.31;4.01;;;;;;;-1.56;48.12;102486.64;471432;112;930591;-79
2022/12/02 02:54:08;;;;;;;4.30;3.90;;;;;;;-1.56;48.15;102491.99;471312;112;922468;-80
2022/12/02 02:55:15;;;;;;;4.82;4.26;;;;;;;-1.57;48.24;102503.63;470753;112;922477;-79
2022/12/02 02:56:18;;;;;;;4.38;3.98;;;;;;;-1.56;48.16;102500.02;470768;112;923318;-80
2022/12/02 02:57:21;;;;;;;4.21;3.91;;;;;;;-1.58;48.20;102502.77;467082;112;922430;-81
2022/12/02 02:58:26;;;;;;;4.66;4.06;;;;;;;-1.57;48.27;102495.61;463232;114;922553;-79
2022/12/02 02:59:29;;;;;;;4.18;3.84;;;;;;;-1.56;48.23;102506.23;463040;114;922463;-80
2022/12/02 03:00:33;;;;;;;4.94;4.54;;;;;;;-1.55;48.21;102496.39;466193;112;922869;-78
2022/12/02 03:01:36;;;;;;;4.42;4.04;;;;;;;-1.55;48.20;102509.77;471389;112;922774;-81
2022/12/02 03:02:41;;;;;;;4.59;4.19;;;;;;;-1.55;48.21;102501.74;471343;112;930452;-79
2022/12/02 03:03:50;;;;;;;4.87;4.47;;;;;;;-1.55;48.19;102501.74;471393;112;922951;-79
2022/12/02 03:05:01;;;;;;;4.91;4.53;;;;;;;-1.45;48.29;102500.24;475663;110;946849;-80
2022/12/02 03:06:07;;;;;;;4.70;4.22;;;;;;;-1.55;48.31;102493.72;458091;114;922501;-80
2022/12/02 03:07:11;;;;;;;6.82;3.81;;;;;;;-1.56;48.27;102505.36;457419;116;922451;-80
2022/12/02 03:08:15;;;;;;;4.53;4.14;;;;;;;-1.57;48.16;102499.15;457527;115;922529;-80
2022/12/02 03:09:21;;;;;;;5.05;3.84;;;;;;;-1.57;48.16;102507.17;457503;116;922547;-79
2022/12/02 03:10:24;;;;;;;4.11;3.81;;;;;;;-1.58;48.11;102496.55;458483;114;922622;-81
2022/12/02 03:11:28;;;;;;;4.27;3.87;;;;;;;-1.59;48.15;102503.72;459945;115;922561;-79
2022/12/02 03:12:32;;;;;;;4.69;4.16;;;;;;;-1.59;48.17;102495.69;459926;115;930526;-80
2022/12/02 03:13:38;;;;;;;4.26;3.88;;;;;;;-1.59;48.22;102506.39;459828;115;922525;-81
2022/12/02 03:14:43;;;;;;;4.19;3.89;;;;;;;-1.58;48.30;102510.80;459808;115;922603;-80
2022/12/02 03:15:47;;;;;;;4.28;3.96;;;;;;;-1.59;48.25;102502.84;458731;113;923129;-80
2022/12/02 03:16:50;;;;;;;4.64;4.24;;;;;;;-1.59;48.26;102501.04;457520;116;922500;-81
2022/12/02 03:17:54;;;;;;;5.11;4.49;;;;;;;-1.58;48.25;102507.25;457533;116;922432;-79
2022/12/02 03:18:58;;;;;;;4.38;4.08;;;;;;;-1.60;48.26;102512.72;457465;116;930613;-80
2022/12/02 03:20:01;;;;;;;4.00;3.71;;;;;;;-1.60;48.29;102503.83;457501;116;922481;-81
2022/12/02 03:21:05;;;;;;;4.46;4.11;;;;;;;-1.60;48.29;102512.72;458055;114;922485;-79
2022/12/02 03:22:09;;;;;;;4.49;4.10;;;;;;;-1.59;48.22;102503.72;457523;116;922599;-80
2022/12/02 03:23:14;;;;;;;4.24;3.85;;;;;;;-1.61;48.24;102510.98;457533;116;923510;-80
2022/12/02 03:24:17;;;;;;;4.54;4.14;;;;;;;-1.61;48.26;102510.98;457518;116;922859;-80
2022/12/02 03:25:20;;;;;;;4.33;4.03;;;;;;;-1.61;48.33;102516.34;457893;114;922633;-80
2022/12/02 03:26:24;;;;;;;4.36;3.96;;;;;;;-1.60;48.34;102506.50;457595;116;922962;-79
2022/12/02 03:27:27;;;;;;;4.50;4.10;;;;;;;-1.60;48.28;102518.06;457571;116;922566;-79
2022/12/02 03:28:32;;;;;;;4.60;4.20;;;;;;;-1.59;48.32;102502.84;457488;116;930478;-81
2022/12/02 03:29:36;;;;;;;4.64;4.25;;;;;;;-1.58;48.33;102515.28;457372;115;930535;-81
2022/12/02 03:30:39;;;;;;;4.26;3.92;;;;;;;-1.58;48.25;102516.14;457587;114;930510;-80
2022/12/02 03:31:43;;;;;;;4.11;3.74;;;;;;;-1.58;48.34;102509.92;457566;116;922673;-80
2022/12/02 03:32:47;;;;;;;4.71;4.29;;;;;;;-1.58;48.29;102523.30;457943;115;922616;-78
2022/12/02 03:33:50;;;;;;;4.38;4.02;;;;;;;-1.59;48.30;102519.77;458850;115;921938;-78
2022/12/02 03:34:53;;;;;;;4.84;4.47;;;;;;;-1.59;48.31;102518.89;458830;116;922161;-78
2022/12/02 03:35:56;;;;;;;4.11;3.81;;;;;;;-1.60;48.18;102518.06;459083;111;929876;-78
2022/12/02 03:37:00;;;;;;;4.42;4.11;;;;;;;-1.61;48.26;102521.69;458975;114;921858;-78
2022/12/02 03:38:03;;;;;;;4.64;4.28;;;;;;;-1.62;48.29;102509.26;458987;114;922085;-79
2022/12/02 03:39:06;;;;;;;4.77;4.34;;;;;;;-1.63;48.19;102512.88;458956;111;922685;-78
2022/12/02 03:40:11;;;;;;;4.41;4.07;;;;;;;-1.65;48.27;102514.77;459483;114;922076;-79
2022/12/02 03:41:15;;;;;;;4.03;3.73;;;;;;;-1.66;48.26;102514.87;466883;112;922147;-80
2022/12/02 03:42:19;;;;;;;4.54;4.16;;;;;;;-1.67;48.29;102515.83;466824;114;929805;-79
2022/12/02 03:43:23;;;;;;;4.68;4.28;;;;;;;-1.69;48.23;102514.09;466837;114;930246;-79
2022/12/02 03:44:26;;;;;;;4.09;3.79;;;;;;;-1.69;48.29;102514.09;466835;113;922065;-78
2022/12/02 03:45:29;;;;;;;4.48;4.17;;;;;;;-1.67;48.33;102522.03;466897;114;922074;-77
2022/12/02 03:46:33;;;;;;;4.28;3.91;;;;;;;-1.67;48.44;102516.69;467498;114;922100;-79
2022/12/02 03:47:36;;;;;;;4.85;4.44;;;;;;;-1.68;48.37;102514.95;467484;114;922213;-78
2022/12/02 03:48:40;;;;;;;4.02;3.71;;;;;;;-1.67;48.37;102518.50;467434;114;922132;-79
2022/12/02 03:49:43;;;;;;;4.05;3.74;;;;;;;-1.67;48.43;102515.83;467370;114;922203;-76
2022/12/02 03:50:48;;;;;;;4.60;4.04;;;;;;;-1.66;48.48;102523.77;461787;113;930006;-78
2022/12/02 03:51:52;;;;;;;4.24;3.91;;;;;;;-1.65;48.51;102525.47;458560;116;922166;-79
2022/12/02 03:52:55;;;;;;;5.04;4.64;;;;;;;-1.66;48.46;102518.42;458693;116;922085;-77
2022/12/02 03:54:00;;;;;;;4.76;4.36;;;;;;;-1.65;48.51;102530.81;458207;116;925422;-79
2022/12/02 03:55:05;;;;;;;4.33;3.94;;;;;;;-1.66;48.41;102518.42;457548;116;930337;-80
2022/12/02 03:56:09;;;;;;;5.08;4.68;;;;;;;-1.66;48.42;102529.12;465420;114;922938;-80
2022/12/02 03:57:12;;;;;;;4.35;3.95;;;;;;;-1.67;48.48;102519.36;465684;114;922517;-79
2022/12/02 03:58:15;;;;;;;5.10;4.54;;;;;;;-1.68;48.45;102517.63;465786;114;930461;-81
2022/12/02 03:59:22;;;;;;;4.17;3.84;;;;;;;-1.69;48.58;102524.79;465729;114;922571;-79
2022/12/02 04:00:25;;;;;;;4.89;4.48;;;;;;;-1.68;48.53;102522.98;463478;113;922413;-81
2022/12/02 04:01:28;;;;;;;4.46;4.16;;;;;;;-1.70;48.56;102517.71;457769;116;922563;-81
2022/12/02 04:02:31;;;;;;;4.58;4.21;;;;;;;-1.70;48.48;102522.20;457795;116;922590;-81
2022/12/02 04:03:35;;;;;;;4.39;4.01;;;;;;;-1.70;48.50;102522.20;457669;116;922420;-79
2022/12/02 04:04:38;;;;;;;3.64;3.34;;;;;;;-1.70;48.48;102522.20;456532;115;922457;-79
2022/12/02 04:05:41;;;;;;;4.23;3.93;;;;;;;-1.70;48.56;102516.84;454086;115;922470;-79
2022/12/02 04:06:46;;;;;;;4.47;4.17;;;;;;;-1.70;48.49;102519.52;452308;117;922464;-79
2022/12/02 04:07:49;;;;;;;4.29;3.60;;;;;;;-1.70;48.57;102514.17;453300;117;922568;-79
2022/12/02 04:08:53;;;;;;;4.31;3.92;;;;;;;-1.69;48.58;102522.12;453163;117;922332;-79
2022/12/02 04:09:56;;;;;;;4.59;4.29;;;;;;;-1.70;48.45;102517.71;453167;115;922526;-81
2022/12/02 04:10:59;;;;;;;4.97;4.62;;;;;;;-1.70;48.46;102514.17;453816;115;922990;-79
2022/12/02 04:12:03;;;;;;;4.38;4.06;;;;;;;-1.69;48.45;102518.58;454003;117;922759;-79
2022/12/02 04:13:06;;;;;;;5.22;4.52;;;;;;;-1.71;48.47;102515.16;453912;117;922297;-77
2022/12/02 04:14:09;;;;;;;4.36;4.02;;;;;;;-1.72;48.45;102522.31;454080;117;930190;-79
2022/12/02 04:15:13;;;;;;;4.92;4.51;;;;;;;-1.73;48.57;102517.91;454450;115;922664;-77
2022/12/02 04:16:16;;;;;;;4.68;4.28;;;;;;;-1.73;48.53;102517.04;453936;117;922286;-79
2022/12/02 04:17:19;;;;;;;4.66;4.26;;;;;;;-1.74;48.53;102510.83;453294;117;930499;-79
2022/12/02 04:18:22;;;;;;;4.29;3.92;;;;;;;-1.75;48.52;102522.47;452944;117;922521;-79
2022/12/02 04:19:26;;;;;;;4.82;4.42;;;;;;;-1.75;48.54;102517.12;452952;115;922547;-78
2022/12/02 04:20:29;;;;;;;4.11;3.79;;;;;;;-1.76;48.60;102515.39;453681;115;922584;-80
2022/12/02 04:21:32;;;;;;;4.32;3.91;;;;;;;-1.76;48.55;102527.89;453008;117;922558;-79
2022/12/02 04:22:35;;;;;;;4.77;4.37;;;;;;;-1.77;48.65;102519.04;453029;117;922477;-80
2022/12/02 04:23:38;;;;;;;6.01;5.10;;;;;;;-1.76;48.57;102520.73;453041;117;922784;-79
2022/12/02 04:24:41;;;;;;;3.85;3.55;;;;;;;-1.77;48.55;102516.36;453006;115;922582;-78
2022/12/02 04:25:45;;;;;;;4.74;4.35;;;;;;;-1.76;48.58;102520.73;453361;115;922574;-80
2022/12/02 04:26:48;;;;;;;4.93;4.54;;;;;;;-1.76;48.53;102523.41;452988;117;923007;-80
2022/12/02 04:27:51;;;;;;;4.45;4.07;;;;;;;-1.75;48.54;102524.27;452993;117;922510;-80
2022/12/02 04:28:54;;;;;;;4.61;4.22;;;;;;;-1.75;48.52;102521.60;452995;117;922545;-79
2022/12/02 04:29:57;;;;;;;4.31;4.01;;;;;;;-1.77;48.58;102518.17;452927;115;922484;-78
2022/12/02 04:31:00;;;;;;;4.80;4.50;;;;;;;-1.76;48.41;102518.06;453709;115;922899;-79
2022/12/02 04:32:04;;;;;;;5.23;4.82;;;;;;;-1.78;48.40;102514.64;452909;117;922836;-82
2022/12/02 04:33:07;;;;;;;5.16;4.76;;;;;;;-1.79;48.41;102518.25;452871;117;927206;-79
2022/12/02 04:34:11;;;;;;;5.18;4.75;;;;;;;-1.80;48.45;102521.87;453011;117;922424;-80
2022/12/02 04:35:14;;;;;;;4.64;4.32;;;;;;;-1.80;48.46;102516.52;453662;115;922843;-79
2022/12/02 04:36:17;;;;;;;4.47;4.08;;;;;;;-1.79;48.55;102525.41;452961;117;922505;-80
2022/12/02 04:37:20;;;;;;;4.39;4.09;;;;;;;-1.80;48.50;102516.52;453003;117;923012;-82
2022/12/02 04:38:23;;;;;;;4.43;3.91;;;;;;;-1.79;48.50;102514.72;453009;117;922464;-79
2022/12/02 04:39:26;;;;;;;5.29;4.29;;;;;;;-1.79;48.47;102525.41;453013;115;922472;-79
2022/12/02 04:40:29;;;;;;;4.91;4.51;;;;;;;-1.79;48.47;102517.39;455395;115;922797;-79
2022/12/02 04:41:33;;;;;;;4.55;4.15;;;;;;;-1.79;48.53;102522.73;460927;115;922946;-79
2022/12/02 04:42:36;;;;;;;5.31;4.83;;;;;;;-1.78;48.52;102519.12;460937;115;922932;-79
2022/12/02 04:43:39;;;;;;;5.16;4.68;;;;;;;-1.80;48.43;102521.87;460912;115;922548;-79
2022/12/02 04:44:42;;;;;;;4.42;4.03;;;;;;;-1.79;48.44;102523.60;460885;113;922502;-79
2022/12/02 04:45:45;;;;;;;5.09;4.70;;;;;;;-1.78;48.47;102524.47;456444;115;922834;-80
2022/12/02 04:46:49;;;;;;;4.97;4.58;;;;;;;-1.78;48.47;102522.66;452925;117;922849;-80
2022/12/02 04:47:52;;;;;;;4.13;3.83;;;;;;;-1.76;48.47;102522.55;452877;117;930480;-79
2022/12/02 04:48:55;;;;;;;4.60;4.24;;;;;;;-1.75;48.49;102534.97;453030;117;922608;-79
2022/12/02 04:49:58;;;;;;;4.14;3.84;;;;;;;-1.75;48.49;102521.60;452986;115;922487;-78
2022/12/02 04:51:01;;;;;;;5.04;4.51;;;;;;;-1.75;48.50;102525.14;453331;115;922488;-80
2022/12/02 04:52:05;;;;;;;4.58;4.18;;;;;;;-1.75;48.51;102527.81;452924;117;922596;-79
2022/12/02 04:53:08;;;;;;;4.37;3.98;;;;;;;-1.75;48.45;102519.80;453001;117;922809;-82
2022/12/02 04:54:11;;;;;;;4.45;4.12;;;;;;;-1.73;48.48;102527.73;453031;117;923028;-79
2022/12/02 04:55:14;;;;;;;4.28;3.90;;;;;;;-1.74;48.39;102528.68;453048;115;922634;-79
2022/12/02 04:56:17;;;;;;;4.56;4.19;;;;;;;-1.73;48.38;102527.73;452968;117;922529;-78